XLR444 YMML-YSSY
Flight info
| Callsign | XLR444 |
|---|---|
| Flight time | 1h 6m |
| Altitude | 37000 |
| Route | H129 DOSEL Y59 RIVET |
| Aircraft | B738/M-SDE2E3FGHIRWXY/LB1 |
Departure
| Time | 2026-04-30 10:41 |
|---|---|
| Airport | Melbourne Airport (YMML) |
Arrival
| Time | 2026-04-30 11:47 |
|---|---|
| Airport | Sydney Kingsford Smith International Airport (YSSY) |
| Time | Latitude | Longitude | Altitude | Speed | Heading |
|---|---|---|---|---|---|
| 2026-04-30 10:01 | -37.67821 | 144.84789 | 368 ft | 0 kts | 172° |
| 2026-04-30 10:30 | -37.67820 | 144.84788 | 367 ft | 2 kts | 172° |
| 2026-04-30 10:30 | -37.67795 | 144.84784 | 371 ft | 3 kts | 172° |
| 2026-04-30 10:30 | -37.67774 | 144.84780 | 369 ft | 4 kts | 173° |
| 2026-04-30 10:30 | -37.67747 | 144.84778 | 370 ft | 4 kts | 188° |
| 2026-04-30 10:31 | -37.67728 | 144.84788 | 371 ft | 4 kts | 253° |
| 2026-04-30 10:31 | -37.67723 | 144.84818 | 371 ft | 2 kts | 262° |
| 2026-04-30 10:31 | -37.67723 | 144.84820 | 371 ft | 1 kts | 262° |
| 2026-04-30 10:35 | -37.67724 | 144.84815 | 371 ft | 3 kts | 262° |
| 2026-04-30 10:35 | -37.67731 | 144.84748 | 371 ft | 11 kts | 261° |
| 2026-04-30 10:36 | -37.67743 | 144.84656 | 369 ft | 10 kts | 253° |
| 2026-04-30 10:36 | -37.67796 | 144.84594 | 366 ft | 12 kts | 214° |
| 2026-04-30 10:36 | -37.67828 | 144.84500 | 363 ft | 12 kts | 262° |
| 2026-04-30 10:36 | -37.67864 | 144.84403 | 365 ft | 13 kts | 207° |
| 2026-04-30 10:37 | -37.67957 | 144.84410 | 357 ft | 15 kts | 171° |
| 2026-04-30 10:37 | -37.68062 | 144.84430 | 358 ft | 16 kts | 171° |
| 2026-04-30 10:37 | -37.68175 | 144.84450 | 353 ft | 17 kts | 172° |
| 2026-04-30 10:37 | -37.68290 | 144.84472 | 352 ft | 17 kts | 172° |
| 2026-04-30 10:38 | -37.68396 | 144.84428 | 347 ft | 16 kts | 214° |
| 2026-04-30 10:38 | -37.68490 | 144.84349 | 339 ft | 16 kts | 214° |
| 2026-04-30 10:38 | -37.68550 | 144.84249 | 337 ft | 3 kts | 255° |
| 2026-04-30 10:38 | -37.68551 | 144.84240 | 338 ft | 0 kts | 259° |
| 2026-04-30 10:39 | -37.68551 | 144.84239 | 338 ft | 2 kts | 259° |
| 2026-04-30 10:40 | -37.68527 | 144.84123 | 349 ft | 19 kts | 310° |
| 2026-04-30 10:40 | -37.68391 | 144.84063 | 349 ft | 37 kts | 353° |
| 2026-04-30 10:40 | -37.67883 | 144.83968 | 358 ft | 108 kts | 352° |
| 2026-04-30 10:40 | -37.66937 | 144.83792 | 399 ft | 163 kts | 352° |
| 2026-04-30 10:41 | -37.65769 | 144.83570 | 1101 ft | 161 kts | 353° |
| 2026-04-30 10:41 | -37.64681 | 144.83380 | 2032 ft | 157 kts | 351° |
| 2026-04-30 10:41 | -37.63567 | 144.83173 | 2704 ft | 173 kts | 352° |
| 2026-04-30 10:41 | -37.62282 | 144.82927 | 3067 ft | 197 kts | 352° |
| 2026-04-30 10:42 | -37.60917 | 144.82670 | 3723 ft | 200 kts | 351° |
| 2026-04-30 10:42 | -37.59460 | 144.82471 | 3988 ft | 226 kts | 4° |
| 2026-04-30 10:42 | -37.57854 | 144.82995 | 4360 ft | 248 kts | 20° |
| 2026-04-30 10:42 | -37.56259 | 144.83915 | 5199 ft | 255 kts | 24° |
| 2026-04-30 10:43 | -37.54656 | 144.84915 | 6049 ft | 261 kts | 24° |
| 2026-04-30 10:43 | -37.53011 | 144.85946 | 6848 ft | 267 kts | 24° |
| 2026-04-30 10:43 | -37.51328 | 144.86992 | 7681 ft | 271 kts | 24° |
| 2026-04-30 10:43 | -37.49631 | 144.88034 | 8564 ft | 273 kts | 24° |
| 2026-04-30 10:44 | -37.47915 | 144.89079 | 9409 ft | 276 kts | 23° |
| 2026-04-30 10:44 | -37.46171 | 144.90136 | 10268 ft | 280 kts | 23° |
| 2026-04-30 10:44 | -37.44367 | 144.91256 | 10576 ft | 303 kts | 29° |
| 2026-04-30 10:44 | -37.42747 | 144.93126 | 10776 ft | 332 kts | 50° |
| 2026-04-30 10:45 | -37.41350 | 144.95526 | 11222 ft | 345 kts | 52° |
| 2026-04-30 10:45 | -37.39977 | 144.97989 | 11886 ft | 351 kts | 53° |
| 2026-04-30 10:45 | -37.38560 | 145.00554 | 12645 ft | 354 kts | 53° |
| 2026-04-30 10:45 | -37.37162 | 145.03073 | 13372 ft | 358 kts | 53° |
| 2026-04-30 10:46 | -37.35726 | 145.05644 | 14092 ft | 362 kts | 53° |
| 2026-04-30 10:46 | -37.34263 | 145.08249 | 14721 ft | 366 kts | 52° |
| 2026-04-30 10:46 | -37.32786 | 145.10867 | 15363 ft | 371 kts | 52° |
| 2026-04-30 10:46 | -37.31281 | 145.13528 | 15993 ft | 375 kts | 52° |
| 2026-04-30 10:47 | -37.29761 | 145.16211 | 16626 ft | 379 kts | 52° |
| 2026-04-30 10:47 | -37.28224 | 145.18920 | 17236 ft | 383 kts | 52° |
| 2026-04-30 10:47 | -37.26671 | 145.21657 | 17839 ft | 388 kts | 52° |
| 2026-04-30 10:47 | -37.25096 | 145.24430 | 18447 ft | 392 kts | 52° |
| 2026-04-30 10:48 | -37.23503 | 145.27232 | 18988 ft | 396 kts | 52° |
| 2026-04-30 10:48 | -37.21897 | 145.30058 | 19522 ft | 399 kts | 52° |
| 2026-04-30 10:48 | -37.20277 | 145.32908 | 20059 ft | 403 kts | 52° |
| 2026-04-30 10:48 | -37.18641 | 145.35780 | 20580 ft | 406 kts | 52° |
| 2026-04-30 10:49 | -37.16991 | 145.38668 | 21095 ft | 410 kts | 52° |
| 2026-04-30 10:49 | -37.15321 | 145.41587 | 21586 ft | 414 kts | 52° |
| 2026-04-30 10:49 | -37.13629 | 145.44530 | 22069 ft | 417 kts | 52° |
| 2026-04-30 10:49 | -37.11926 | 145.47488 | 22550 ft | 421 kts | 52° |
| 2026-04-30 10:50 | -37.10205 | 145.50475 | 23017 ft | 424 kts | 52° |
| 2026-04-30 10:50 | -37.08475 | 145.53481 | 23493 ft | 427 kts | 52° |
| 2026-04-30 10:50 | -37.06727 | 145.56517 | 23940 ft | 431 kts | 52° |
| 2026-04-30 10:50 | -37.04971 | 145.59568 | 24309 ft | 434 kts | 52° |
| 2026-04-30 10:51 | -37.03200 | 145.62641 | 24699 ft | 437 kts | 52° |
| 2026-04-30 10:51 | -37.01417 | 145.65736 | 25077 ft | 439 kts | 52° |
| 2026-04-30 10:51 | -36.99648 | 145.68801 | 25443 ft | 442 kts | 52° |
| 2026-04-30 10:51 | -36.97817 | 145.71973 | 25819 ft | 445 kts | 52° |
| 2026-04-30 10:52 | -36.96001 | 145.75114 | 26178 ft | 448 kts | 52° |
| 2026-04-30 10:52 | -36.94172 | 145.78276 | 26531 ft | 450 kts | 53° |
| 2026-04-30 10:52 | -36.92327 | 145.81462 | 26882 ft | 453 kts | 53° |
| 2026-04-30 10:52 | -36.90496 | 145.84620 | 27206 ft | 456 kts | 53° |
| 2026-04-30 10:53 | -36.88633 | 145.87831 | 27538 ft | 458 kts | 53° |
| 2026-04-30 10:53 | -36.86754 | 145.91068 | 27856 ft | 461 kts | 53° |
| 2026-04-30 10:53 | -36.84867 | 145.94314 | 28171 ft | 464 kts | 53° |
| 2026-04-30 10:53 | -36.82963 | 145.97586 | 28493 ft | 466 kts | 53° |
| 2026-04-30 10:54 | -36.81050 | 146.00869 | 28794 ft | 469 kts | 53° |
| 2026-04-30 10:54 | -36.79125 | 146.04171 | 29092 ft | 472 kts | 53° |
| 2026-04-30 10:54 | -36.77195 | 146.07480 | 29393 ft | 474 kts | 53° |
| 2026-04-30 10:54 | -36.75246 | 146.10816 | 29685 ft | 476 kts | 53° |
| 2026-04-30 10:55 | -36.73289 | 146.14164 | 29961 ft | 479 kts | 53° |
| 2026-04-30 10:55 | -36.71295 | 146.17570 | 30242 ft | 481 kts | 53° |
| 2026-04-30 10:55 | -36.69343 | 146.20902 | 30499 ft | 483 kts | 53° |
| 2026-04-30 10:55 | -36.67333 | 146.24330 | 30788 ft | 484 kts | 53° |
| 2026-04-30 10:56 | -36.65375 | 146.27665 | 31146 ft | 482 kts | 53° |
| 2026-04-30 10:56 | -36.63408 | 146.31029 | 31533 ft | 480 kts | 53° |
| 2026-04-30 10:56 | -36.61444 | 146.34392 | 31886 ft | 479 kts | 53° |
| 2026-04-30 10:56 | -36.59479 | 146.37741 | 32198 ft | 479 kts | 53° |
| 2026-04-30 10:57 | -36.57510 | 146.41085 | 32501 ft | 479 kts | 53° |
| 2026-04-30 10:57 | -36.55541 | 146.44420 | 32834 ft | 478 kts | 53° |
| 2026-04-30 10:57 | -36.53576 | 146.47744 | 33192 ft | 476 kts | 53° |
| 2026-04-30 10:57 | -36.51614 | 146.51060 | 33524 ft | 476 kts | 53° |
| 2026-04-30 10:58 | -36.49656 | 146.54367 | 33837 ft | 475 kts | 52° |
| 2026-04-30 10:58 | -36.47697 | 146.57673 | 34162 ft | 474 kts | 52° |
| 2026-04-30 10:58 | -36.45747 | 146.60963 | 34499 ft | 472 kts | 52° |
| 2026-04-30 10:58 | -36.43800 | 146.64243 | 34768 ft | 472 kts | 52° |
| 2026-04-30 10:59 | -36.41853 | 146.67522 | 34971 ft | 473 kts | 52° |
| 2026-04-30 10:59 | -36.39895 | 146.70815 | 35168 ft | 474 kts | 52° |
| 2026-04-30 10:59 | -36.37938 | 146.74102 | 35405 ft | 473 kts | 52° |
| 2026-04-30 10:59 | -36.35984 | 146.77382 | 35644 ft | 473 kts | 52° |
| 2026-04-30 11:00 | -36.34024 | 146.80670 | 35834 ft | 474 kts | 52° |
| 2026-04-30 11:00 | -36.32059 | 146.83962 | 36006 ft | 475 kts | 52° |
| 2026-04-30 11:00 | -36.30093 | 146.87253 | 36221 ft | 475 kts | 52° |
| 2026-04-30 11:00 | -36.28123 | 146.90547 | 36442 ft | 475 kts | 52° |
| 2026-04-30 11:01 | -36.26152 | 146.93841 | 36625 ft | 476 kts | 52° |
| 2026-04-30 11:01 | -36.24178 | 146.97136 | 36799 ft | 477 kts | 52° |
| 2026-04-30 11:01 | -36.22201 | 147.00435 | 36989 ft | 477 kts | 52° |
| 2026-04-30 11:01 | -36.20219 | 147.03737 | 37181 ft | 478 kts | 52° |
| 2026-04-30 11:02 | -36.18237 | 147.07036 | 37341 ft | 479 kts | 52° |
| 2026-04-30 11:02 | -36.16243 | 147.10350 | 37396 ft | 481 kts | 52° |
| 2026-04-30 11:02 | -36.12232 | 147.17010 | 37396 ft | 481 kts | 52° |
| 2026-04-30 11:03 | -36.08242 | 147.23627 | 37394 ft | 479 kts | 52° |
| 2026-04-30 11:04 | -36.02312 | 147.33440 | 37404 ft | 476 kts | 52° |
| 2026-04-30 11:04 | -35.98329 | 147.40015 | 37408 ft | 475 kts | 52° |
| 2026-04-30 11:05 | -35.94387 | 147.46510 | 37409 ft | 476 kts | 52° |
| 2026-04-30 11:05 | -35.90410 | 147.53051 | 37422 ft | 478 kts | 52° |
| 2026-04-30 11:06 | -35.86408 | 147.59623 | 37429 ft | 480 kts | 52° |
| 2026-04-30 11:06 | -35.82380 | 147.66221 | 37425 ft | 483 kts | 52° |
| 2026-04-30 11:07 | -35.78324 | 147.72844 | 37433 ft | 485 kts | 52° |
| 2026-04-30 11:07 | -35.74255 | 147.79479 | 37430 ft | 486 kts | 52° |
| 2026-04-30 11:08 | -35.70176 | 147.86121 | 37433 ft | 486 kts | 52° |
| 2026-04-30 11:08 | -35.66096 | 147.92752 | 37436 ft | 486 kts | 52° |
| 2026-04-30 11:09 | -35.62021 | 147.99362 | 37440 ft | 484 kts | 52° |
| 2026-04-30 11:09 | -35.57955 | 148.05946 | 37438 ft | 483 kts | 52° |
| 2026-04-30 11:10 | -35.53899 | 148.12501 | 37442 ft | 481 kts | 52° |
| 2026-04-30 11:10 | -35.49858 | 148.19020 | 37443 ft | 479 kts | 52° |
| 2026-04-30 11:11 | -35.45828 | 148.25512 | 37454 ft | 477 kts | 52° |
| 2026-04-30 11:11 | -35.41801 | 148.31981 | 37460 ft | 476 kts | 52° |
| 2026-04-30 11:12 | -35.37774 | 148.38424 | 37449 ft | 476 kts | 52° |
| 2026-04-30 11:12 | -35.33747 | 148.44855 | 37459 ft | 476 kts | 52° |
| 2026-04-30 11:13 | -35.29717 | 148.51284 | 37459 ft | 476 kts | 52° |
| 2026-04-30 11:13 | -35.25680 | 148.57712 | 37456 ft | 477 kts | 52° |
| 2026-04-30 11:14 | -35.21635 | 148.64142 | 37454 ft | 477 kts | 52° |
| 2026-04-30 11:14 | -35.17574 | 148.70585 | 37251 ft | 481 kts | 52° |
| 2026-04-30 11:14 | -35.15564 | 148.73771 | 36993 ft | 480 kts | 52° |
| 2026-04-30 11:15 | -35.13502 | 148.77035 | 36729 ft | 476 kts | 52° |
| 2026-04-30 11:15 | -35.11481 | 148.80231 | 36437 ft | 476 kts | 52° |
| 2026-04-30 11:15 | -35.09481 | 148.83392 | 36089 ft | 477 kts | 52° |
| 2026-04-30 11:15 | -35.07453 | 148.86592 | 35754 ft | 477 kts | 52° |
| 2026-04-30 11:16 | -35.05396 | 148.89837 | 35411 ft | 477 kts | 52° |
| 2026-04-30 11:16 | -35.04050 | 148.91959 | 35193 ft | 477 kts | 52° |
| 2026-04-30 11:16 | -35.01357 | 148.96199 | 34710 ft | 477 kts | 52° |
| 2026-04-30 11:16 | -34.99988 | 148.98353 | 34469 ft | 477 kts | 52° |
| 2026-04-30 11:17 | -34.97954 | 149.01550 | 34042 ft | 476 kts | 52° |
| 2026-04-30 11:17 | -34.95926 | 149.04736 | 33613 ft | 476 kts | 52° |
| 2026-04-30 11:17 | -34.93898 | 149.07918 | 33177 ft | 475 kts | 52° |
| 2026-04-30 11:17 | -34.91870 | 149.11098 | 32708 ft | 475 kts | 52° |
| 2026-04-30 11:18 | -34.89844 | 149.14272 | 32257 ft | 474 kts | 52° |
| 2026-04-30 11:18 | -34.85801 | 149.20598 | 31373 ft | 472 kts | 52° |
| 2026-04-30 11:18 | -34.83785 | 149.23746 | 30942 ft | 472 kts | 52° |
| 2026-04-30 11:19 | -34.81766 | 149.26898 | 30458 ft | 472 kts | 52° |
| 2026-04-30 11:19 | -34.79746 | 149.30050 | 29910 ft | 473 kts | 52° |
| 2026-04-30 11:19 | -34.77722 | 149.33206 | 29377 ft | 473 kts | 52° |
| 2026-04-30 11:19 | -34.75696 | 149.36360 | 28845 ft | 474 kts | 52° |
| 2026-04-30 11:20 | -34.73730 | 149.39570 | 28323 ft | 474 kts | 57° |
| 2026-04-30 11:20 | -34.72096 | 149.43055 | 27818 ft | 474 kts | 63° |
| 2026-04-30 11:20 | -34.70569 | 149.46604 | 27318 ft | 475 kts | 63° |
| 2026-04-30 11:20 | -34.69054 | 149.50179 | 26825 ft | 476 kts | 63° |
| 2026-04-30 11:21 | -34.67532 | 149.53754 | 26343 ft | 477 kts | 63° |
| 2026-04-30 11:21 | -34.65994 | 149.57330 | 25925 ft | 474 kts | 63° |
| 2026-04-30 11:21 | -34.64483 | 149.60808 | 25681 ft | 459 kts | 63° |
| 2026-04-30 11:21 | -34.63017 | 149.64160 | 25492 ft | 437 kts | 62° |
| 2026-04-30 11:22 | -34.61631 | 149.67320 | 25445 ft | 412 kts | 62° |
| 2026-04-30 11:22 | -34.60308 | 149.70331 | 25442 ft | 399 kts | 62° |
| 2026-04-30 11:22 | -34.59005 | 149.73300 | 25458 ft | 399 kts | 63° |
| 2026-04-30 11:22 | -34.57697 | 149.76276 | 25474 ft | 402 kts | 62° |
| 2026-04-30 11:23 | -34.56395 | 149.79238 | 25445 ft | 391 kts | 63° |
| 2026-04-30 11:23 | -34.55124 | 149.82126 | 25016 ft | 386 kts | 62° |
| 2026-04-30 11:23 | -34.52636 | 149.87776 | 23989 ft | 374 kts | 62° |
| 2026-04-30 11:24 | -34.51416 | 149.90542 | 23354 ft | 370 kts | 62° |
| 2026-04-30 11:24 | -34.50208 | 149.93276 | 22728 ft | 366 kts | 62° |
| 2026-04-30 11:24 | -34.49011 | 149.95985 | 22114 ft | 362 kts | 62° |
| 2026-04-30 11:25 | -34.46702 | 150.01203 | 20947 ft | 355 kts | 62° |
| 2026-04-30 11:25 | -34.45538 | 150.03832 | 20332 ft | 354 kts | 62° |
| 2026-04-30 11:25 | -34.43223 | 150.09055 | 19118 ft | 350 kts | 62° |
| 2026-04-30 11:26 | -34.40930 | 150.14221 | 17764 ft | 347 kts | 62° |
| 2026-04-30 11:26 | -34.39798 | 150.16768 | 17067 ft | 346 kts | 62° |
| 2026-04-30 11:26 | -34.38663 | 150.19322 | 16368 ft | 345 kts | 62° |
| 2026-04-30 11:27 | -34.37530 | 150.21869 | 15691 ft | 343 kts | 62° |
| 2026-04-30 11:27 | -34.36400 | 150.24408 | 15022 ft | 341 kts | 62° |
| 2026-04-30 11:27 | -34.35278 | 150.26925 | 14402 ft | 338 kts | 62° |
| 2026-04-30 11:27 | -34.34168 | 150.29415 | 13744 ft | 335 kts | 61° |
| 2026-04-30 11:28 | -34.31976 | 150.34328 | 12424 ft | 328 kts | 62° |
| 2026-04-30 11:28 | -34.30896 | 150.36746 | 11784 ft | 326 kts | 61° |
| 2026-04-30 11:28 | -34.29824 | 150.39145 | 11152 ft | 323 kts | 61° |
| 2026-04-30 11:29 | -34.28761 | 150.41518 | 10541 ft | 320 kts | 61° |
| 2026-04-30 11:29 | -34.27706 | 150.43876 | 9885 ft | 317 kts | 61° |
| 2026-04-30 11:29 | -34.25646 | 150.48479 | 8817 ft | 304 kts | 61° |
| 2026-04-30 11:30 | -34.23678 | 150.52872 | 7896 ft | 290 kts | 61° |
| 2026-04-30 11:30 | -34.22726 | 150.54998 | 7452 ft | 284 kts | 61° |
| 2026-04-30 11:30 | -34.21796 | 150.57072 | 7017 ft | 278 kts | 61° |
| 2026-04-30 11:31 | -34.20883 | 150.59107 | 6571 ft | 273 kts | 61° |
| 2026-04-30 11:31 | -34.19981 | 150.61116 | 6115 ft | 269 kts | 61° |
| 2026-04-30 11:31 | -34.19099 | 150.63079 | 5783 ft | 262 kts | 61° |
| 2026-04-30 11:31 | -34.18226 | 150.65017 | 5545 ft | 264 kts | 61° |
| 2026-04-30 11:32 | -34.17348 | 150.66971 | 5308 ft | 266 kts | 61° |
| 2026-04-30 11:32 | -34.16461 | 150.68941 | 5095 ft | 266 kts | 61° |
| 2026-04-30 11:32 | -34.15578 | 150.70904 | 5040 ft | 267 kts | 61° |
| 2026-04-30 11:33 | -34.13847 | 150.74750 | 5000 ft | 250 kts | 61° |
| 2026-04-30 11:33 | -34.13012 | 150.76603 | 5017 ft | 252 kts | 61° |
| 2026-04-30 11:33 | -34.12185 | 150.78438 | 5001 ft | 245 kts | 61° |
| 2026-04-30 11:33 | -34.11383 | 150.80215 | 5001 ft | 238 kts | 61° |
| 2026-04-30 11:34 | -34.10596 | 150.81957 | 5005 ft | 235 kts | 61° |
| 2026-04-30 11:34 | -34.09798 | 150.83724 | 5024 ft | 247 kts | 61° |
| 2026-04-30 11:34 | -34.08965 | 150.85576 | 5022 ft | 253 kts | 61° |
| 2026-04-30 11:34 | -34.08129 | 150.87434 | 5005 ft | 251 kts | 61° |
| 2026-04-30 11:35 | -34.07300 | 150.89277 | 4997 ft | 249 kts | 61° |
| 2026-04-30 11:35 | -34.06477 | 150.91105 | 4998 ft | 248 kts | 61° |
| 2026-04-30 11:35 | -34.05656 | 150.92926 | 4996 ft | 247 kts | 61° |
| 2026-04-30 11:35 | -34.04837 | 150.94743 | 5000 ft | 246 kts | 61° |
| 2026-04-30 11:36 | -34.04018 | 150.96556 | 5004 ft | 247 kts | 61° |
| 2026-04-30 11:36 | -34.03240 | 150.98374 | 4996 ft | 248 kts | 70° |
| 2026-04-30 11:36 | -34.03075 | 151.00429 | 5001 ft | 251 kts | 99° |
| 2026-04-30 11:36 | -34.03761 | 151.02362 | 5007 ft | 254 kts | 124° |
| 2026-04-30 11:37 | -34.04924 | 151.03984 | 5003 ft | 257 kts | 132° |
| 2026-04-30 11:37 | -34.06181 | 151.05537 | 4881 ft | 262 kts | 133° |
| 2026-04-30 11:37 | -34.07477 | 151.07081 | 4607 ft | 260 kts | 140° |
| 2026-04-30 11:37 | -34.09059 | 151.08050 | 4333 ft | 253 kts | 163° |
| 2026-04-30 11:38 | -34.10756 | 151.08496 | 4093 ft | 245 kts | 167° |
| 2026-04-30 11:38 | -34.12405 | 151.08897 | 3831 ft | 238 kts | 167° |
| 2026-04-30 11:38 | -34.14003 | 151.09296 | 3584 ft | 233 kts | 166° |
| 2026-04-30 11:38 | -34.15587 | 151.09699 | 3337 ft | 232 kts | 166° |
| 2026-04-30 11:39 | -34.17173 | 151.10107 | 3101 ft | 234 kts | 166° |
| 2026-04-30 11:39 | -34.18738 | 151.10634 | 3018 ft | 231 kts | 149° |
| 2026-04-30 11:39 | -34.19829 | 151.11876 | 3012 ft | 207 kts | 114° |
| 2026-04-30 11:39 | -34.20076 | 151.13463 | 2996 ft | 187 kts | 79° |
| 2026-04-30 11:40 | -34.19791 | 151.14960 | 3005 ft | 182 kts | 73° |
| 2026-04-30 11:40 | -34.19459 | 151.16446 | 3009 ft | 185 kts | 73° |
| 2026-04-30 11:40 | -34.19120 | 151.17946 | 3005 ft | 185 kts | 73° |
| 2026-04-30 11:40 | -34.18626 | 151.19366 | 3006 ft | 183 kts | 58° |
| 2026-04-30 11:41 | -34.17984 | 151.20670 | 2992 ft | 174 kts | 57° |
| 2026-04-30 11:41 | -34.17143 | 151.21634 | 3016 ft | 167 kts | 31° |
| 2026-04-30 11:41 | -34.16049 | 151.22103 | 3004 ft | 166 kts | 13° |
| 2026-04-30 11:41 | -34.14910 | 151.22384 | 2997 ft | 169 kts | 13° |
| 2026-04-30 11:42 | -34.13741 | 151.22433 | 3011 ft | 167 kts | 355° |
| 2026-04-30 11:42 | -34.12624 | 151.22231 | 3037 ft | 159 kts | 353° |
| 2026-04-30 11:42 | -34.11589 | 151.21996 | 3011 ft | 147 kts | 352° |
| 2026-04-30 11:42 | -34.10598 | 151.21750 | 2838 ft | 142 kts | 351° |
| 2026-04-30 11:43 | -34.09633 | 151.21504 | 2652 ft | 142 kts | 351° |
| 2026-04-30 11:43 | -34.08659 | 151.21252 | 2471 ft | 144 kts | 351° |
| 2026-04-30 11:43 | -34.07680 | 151.20997 | 2279 ft | 143 kts | 351° |
| 2026-04-30 11:43 | -34.06710 | 151.20745 | 2084 ft | 142 kts | 351° |
| 2026-04-30 11:44 | -34.05746 | 151.20493 | 1892 ft | 142 kts | 351° |
| 2026-04-30 11:44 | -34.04778 | 151.20241 | 1711 ft | 142 kts | 351° |
| 2026-04-30 11:44 | -34.03810 | 151.19989 | 1514 ft | 142 kts | 351° |
| 2026-04-30 11:44 | -34.02846 | 151.19738 | 1329 ft | 141 kts | 351° |
| 2026-04-30 11:45 | -34.01883 | 151.19487 | 1148 ft | 142 kts | 350° |
| 2026-04-30 11:45 | -34.00919 | 151.19236 | 956 ft | 142 kts | 350° |
| 2026-04-30 11:45 | -33.99964 | 151.18988 | 767 ft | 138 kts | 349° |
| 2026-04-30 11:45 | -33.99026 | 151.18743 | 546 ft | 138 kts | 350° |
| 2026-04-30 11:46 | -33.98090 | 151.18501 | 384 ft | 137 kts | 349° |
| 2026-04-30 11:46 | -33.97148 | 151.18256 | 198 ft | 140 kts | 349° |
| 2026-04-30 11:46 | -33.96200 | 151.18011 | 44 ft | 136 kts | 350° |
| 2026-04-30 11:46 | -33.95392 | 151.17798 | 28 ft | 98 kts | 348° |
| 2026-04-30 11:47 | -33.94791 | 151.17640 | 28 ft | 70 kts | 348° |
| 2026-04-30 11:47 | -33.94518 | 151.17531 | 29 ft | 37 kts | 334° |
| 2026-04-30 11:47 | -33.94388 | 151.17419 | 29 ft | 8 kts | 320° |
| 2026-04-30 11:47 | -33.94351 | 151.17382 | 29 ft | 0 kts | 322° |
| 2026-04-30 11:48 | -33.94350 | 151.17381 | 29 ft | 2 kts | 320° |
| 2026-04-30 11:48 | -33.94318 | 151.17348 | 29 ft | 8 kts | 320° |
| 2026-04-30 11:48 | -33.94275 | 151.17310 | 29 ft | 8 kts | 331° |
| 2026-04-30 11:48 | -33.94223 | 151.17290 | 28 ft | 8 kts | 347° |
| 2026-04-30 11:49 | -33.94163 | 151.17275 | 27 ft | 10 kts | 348° |
| 2026-04-30 11:49 | -33.94095 | 151.17257 | 28 ft | 10 kts | 347° |
| 2026-04-30 11:49 | -33.94027 | 151.17239 | 28 ft | 10 kts | 347° |
| 2026-04-30 11:49 | -33.93959 | 151.17221 | 28 ft | 10 kts | 348° |
| 2026-04-30 11:50 | -33.93893 | 151.17205 | 28 ft | 9 kts | 348° |
| 2026-04-30 11:50 | -33.93830 | 151.17189 | 28 ft | 9 kts | 348° |
| 2026-04-30 11:50 | -33.93768 | 151.17173 | 28 ft | 9 kts | 348° |
| 2026-04-30 11:50 | -33.93708 | 151.17157 | 28 ft | 9 kts | 347° |
| 2026-04-30 11:51 | -33.93649 | 151.17141 | 28 ft | 8 kts | 346° |
| 2026-04-30 11:51 | -33.93593 | 151.17124 | 28 ft | 8 kts | 346° |
| 2026-04-30 11:51 | -33.93538 | 151.17109 | 28 ft | 8 kts | 346° |
| 2026-04-30 11:51 | -33.93486 | 151.17095 | 29 ft | 8 kts | 352° |
| 2026-04-30 11:52 | -33.93434 | 151.17084 | 29 ft | 7 kts | 348° |
| 2026-04-30 11:52 | -33.93384 | 151.17070 | 29 ft | 7 kts | 344° |
| 2026-04-30 11:52 | -33.93338 | 151.17049 | 29 ft | 7 kts | 332° |
| 2026-04-30 11:52 | -33.93298 | 151.17009 | 29 ft | 8 kts | 314° |
| 2026-04-30 11:53 | -33.93258 | 151.16967 | 29 ft | 8 kts | 332° |
| 2026-04-30 11:53 | -33.93208 | 151.16950 | 29 ft | 7 kts | 346° |
| 2026-04-30 11:53 | -33.93159 | 151.16938 | 29 ft | 7 kts | 348° |
| 2026-04-30 11:53 | -33.93112 | 151.16926 | 29 ft | 7 kts | 348° |
| 2026-04-30 11:54 | -33.93089 | 151.16885 | 29 ft | 7 kts | 255° |
| 2026-04-30 11:54 | -33.93101 | 151.16834 | 29 ft | 5 kts | 257° |
| 2026-04-30 11:54 | -33.93108 | 151.16791 | 29 ft | 5 kts | 256° |
| 2026-04-30 11:54 | -33.93111 | 151.16777 | 29 ft | 0 kts | 257° |